Maia — WDJ4195 — position and weather

sailwx.info

Track history (hours):
 
Tides and Currents Weather Stations Pressure Air Temp Water Temp Dewpoint Dewpoint Depression Visibility Wind Speed Wind Dir Waves Ship Positions

Maia

Owner: Palop, Rafael, DORAL, FL. More information available from US FCC via Universal Licensing System and Coast Guard Vessel Documentation Center.

Last reported at 2018-Feb-19 00:01 UTC. Time now 2018-Feb-19 06:11 UTC.
Position N 25°46' W 080°08'.

Length 17 m.

Type: Sailing vessel. MMSI: 338853000.

Date/timePositionNaut miles runAvg speedWind from/ knotsBaromVisibWave heightAir tempDewpointWater temp
2018-Feb-19 00:01N 25°46' W 080°08'0 7.3
2018-Feb-19 00:00N 25°46' W 080°07'3 7.1
2018-Feb-18 23:31N 25°45' W 080°04'4 7.2
2018-Feb-18 23:00N 25°45' W 079°60'4 7.0
2018-Feb-18 22:29N 25°44' W 079°56'4 7.0
2018-Feb-18 21:57N 25°44' W 079°52'4 7.0
2018-Feb-18 21:27N 25°43' W 079°48'  
2018-Feb-15 10:20N 25°44' W 079°40'2 6.1
2018-Feb-15 10:00N 25°44' W 079°42'3 6.0
2018-Feb-15 09:30N 25°45' W 079°45'3 5.9
2018-Feb-15 09:00N 25°45' W 079°49'3 5.6
2018-Feb-15 08:30N 25°45' W 079°52'3 5.6
2018-Feb-15 07:57N 25°45' W 079°55'3 5.6
2018-Feb-15 07:30N 25°45' W 079°58'3 5.6
2018-Feb-15 07:00N 25°46' W 080°01'3 5.5
2018-Feb-15 06:31N 25°46' W 080°04'  
Track history (hours):
 
Tides and Currents Weather Stations Pressure Air Temp Water Temp Dewpoint Dewpoint Depression Visibility Wind Speed Wind Dir Waves Ship Positions

Maia

Owner: Palop, Rafael, DORAL, FL. More information available from US FCC via Universal Licensing System and Coast Guard Vessel Documentation Center.

Last reported at 2018-Feb-19 00:01 UTC. Time now 2018-Feb-19 06:11 UTC.
Position N 25°46' W 080°08'.

Length 17 m.

Type: Sailing vessel. MMSI: 338853000.

Date/timePositionNaut miles runAvg speedWind from/ knotsBaromVisibWave heightAir tempDewpointWater temp
2018-Feb-19 00:01N 25°46' W 080°08'0 7.3
2018-Feb-19 00:00N 25°46' W 080°07'3 7.1
2018-Feb-18 23:31N 25°45' W 080°04'4 7.2
2018-Feb-18 23:00N 25°45' W 079°60'4 7.0
2018-Feb-18 22:29N 25°44' W 079°56'4 7.0
2018-Feb-18 21:57N 25°44' W 079°52'4 7.0
2018-Feb-18 21:27N 25°43' W 079°48'  
2018-Feb-15 10:20N 25°44' W 079°40'2 6.1
2018-Feb-15 10:00N 25°44' W 079°42'3 6.0
2018-Feb-15 09:30N 25°45' W 079°45'3 5.9
2018-Feb-15 09:00N 25°45' W 079°49'3 5.6
2018-Feb-15 08:30N 25°45' W 079°52'3 5.6
2018-Feb-15 07:57N 25°45' W 079°55'3 5.6
2018-Feb-15 07:30N 25°45' W 079°58'3 5.6
2018-Feb-15 07:00N 25°46' W 080°01'3 5.5
2018-Feb-15 06:31N 25°46' W 080°04'  

Dump ship's entire track history